Time;durP1;ratioP1;P1;durP2;ratioP2;P2;SDS_P1;SDS_P2;PMS_P1;PMS_P2;Temp;Humidity;BMP_temperature;BMP_pressure;BME280_temperature;BME280_humidity;BME280_pressure;Samples;Min_cycle;Max_cycle;Signal;HPM_P1;HPM_P2
2021/06/23 00:00:50;;;;;;;36.53;25.80;;;20.50;99.90;;;;;;4438409;32;20139;-70
2021/06/23 00:03:18;;;;;;;35.57;26.17;;;20.50;99.90;;;;;;4439440;32;20142;-70
2021/06/23 00:05:44;;;;;;;40.47;28.50;;;20.50;99.90;;;;;;4442497;32;20442;-70
2021/06/23 00:08:11;;;;;;;39.20;27.07;;;20.60;99.90;;;;;;4442862;32;20154;-70
2021/06/23 00:10:38;;;;;;;34.37;26.43;;;20.60;99.90;;;;;;4441244;32;20140;-70
2021/06/23 00:13:06;;;;;;;37.40;27.07;;;20.70;99.90;;;;;;4441312;32;20138;-70
2021/06/23 00:15:34;;;;;;;37.37;25.83;;;20.70;99.90;;;;;;4441315;32;20515;-70
2021/06/23 00:18:03;;;;;;;38.20;26.20;;;20.70;99.90;;;;;;4440544;32;20201;-70
2021/06/23 00:20:30;;;;;;;34.63;26.57;;;20.70;99.90;;;;;;4441963;32;20138;-70
2021/06/23 00:22:57;;;;;;;36.17;26.57;;;20.70;99.90;;;;;;4442347;32;20142;-70
2021/06/23 00:25:24;;;;;;;42.07;26.87;;;20.70;99.90;;;;;;4441029;32;20146;-70
2021/06/23 00:27:51;;;;;;;38.17;27.80;;;20.80;99.90;;;;;;4441060;32;20192;-70
2021/06/23 00:30:19;;;;;;;41.93;29.73;;;20.80;99.90;;;;;;4440947;32;20427;-70
2021/06/23 00:32:46;;;;;;;39.00;28.73;;;20.70;99.90;;;;;;4441043;32;20306;-70
2021/06/23 00:35:14;;;;;;;39.50;28.57;;;20.60;99.90;;;;;;4441853;32;20181;-70
2021/06/23 00:37:41;;;;;;;46.97;33.33;;;20.60;99.90;;;;;;4440308;32;20161;-70
2021/06/23 00:40:09;;;;;;;52.17;35.20;;;20.60;99.90;;;;;;4440284;32;20476;-70
2021/06/23 00:42:36;;;;;;;50.53;34.60;;;20.60;99.90;;;;;;4440872;32;20430;-69
2021/06/23 00:45:06;;;;;;;47.57;34.83;;;20.60;99.90;;;;;;4441643;32;20192;-69
2021/06/23 00:47:34;;;;;;;48.27;34.97;;;20.60;99.90;;;;;;4442157;32;20195;-69
2021/06/23 00:50:08;;;;;;;42.87;31.73;;;20.70;99.90;;;;;;4440716;32;20543;-69
2021/06/23 00:52:36;;;;;;;45.33;32.57;;;20.70;99.90;;;;;;4442170;32;20154;-69
2021/06/23 00:55:04;;;;;;;44.50;33.17;;;20.70;99.90;;;;;;4441155;32;20170;-69
2021/06/23 00:57:32;;;;;;;46.83;34.80;;;20.70;99.90;;;;;;4440615;32;20410;-70
2021/06/23 01:00:00;;;;;;;54.97;37.33;;;20.60;99.90;;;;;;4440566;32;20188;-70
2021/06/23 01:02:28;;;;;;;51.73;34.27;;;20.60;99.90;;;;;;4440604;32;20430;-69
2021/06/23 01:04:55;;;;;;;52.97;34.23;;;20.60;99.90;;;;;;4441985;32;20198;-69
2021/06/23 01:07:22;;;;;;;49.07;33.37;;;20.60;99.90;;;;;;4440474;32;20233;-69
2021/06/23 01:09:51;;;;;;;46.83;31.93;;;20.70;99.90;;;;;;4441060;32;20135;-69
2021/06/23 01:12:21;;;;;;;44.57;32.47;;;20.70;99.90;;;;;;4441111;32;20280;-69
2021/06/23 01:14:52;;;;;;;45.43;32.63;;;20.70;99.90;;;;;;4439532;32;20138;-70
2021/06/23 01:17:20;;;;;;;44.77;32.07;;;20.70;99.90;;;;;;4441653;32;20183;-69
2021/06/23 01:19:48;;;;;;;46.87;32.97;;;20.70;99.90;;;;;;4440133;32;20225;-70
2021/06/23 01:22:16;;;;;;;47.13;34.17;;;20.70;99.90;;;;;;4441634;32;20147;-70
2021/06/23 01:24:45;;;;;;;44.10;33.07;;;20.60;99.90;;;;;;4439657;32;20159;-70
2021/06/23 01:27:12;;;;;;;48.33;35.00;;;20.70;99.90;;;;;;4439975;32;20188;-68
2021/06/23 01:29:40;;;;;;;46.03;33.73;;;20.60;99.90;;;;;;4440147;32;20197;-69
2021/06/23 01:32:08;;;;;;;49.17;33.43;;;20.60;99.90;;;;;;4441750;32;20142;-69
2021/06/23 01:34:36;;;;;;;45.63;33.83;;;20.70;99.90;;;;;;4439967;32;20172;-69
2021/06/23 01:37:04;;;;;;;46.23;33.67;;;20.70;99.90;;;;;;4439890;32;20185;-69
2021/06/23 01:39:31;;;;;;;44.70;33.87;;;20.70;99.90;;;;;;4439845;32;20138;-69
2021/06/23 01:41:57;;;;;;;42.43;32.00;;;20.70;99.90;;;;;;4439884;32;20177;-69
2021/06/23 01:44:26;;;;;;;49.70;33.90;;;20.70;99.90;;;;;;4439943;32;20195;-69
2021/06/23 01:46:54;;;;;;;47.40;34.53;;;20.60;99.90;;;;;;4439364;32;20177;-69
2021/06/23 01:49:24;;;;;;;51.07;36.17;;;20.60;99.90;;;;;;4441266;32;20138;-69
2021/06/23 01:51:50;;;;;;;45.97;33.33;;;20.50;99.90;;;;;;4440030;32;20139;-69
2021/06/23 01:54:17;;;;;;;48.87;35.30;;;20.50;99.90;;;;;;4439580;32;20165;-69
2021/06/23 01:56:44;;;;;;;48.87;35.03;;;20.50;99.90;;;;;;4438825;32;20138;-69
2021/06/23 01:59:12;;;;;;;53.27;37.20;;;20.40;99.90;;;;;;4439511;32;20218;-68
2021/06/23 02:02:03;;;;;;;53.90;36.03;;;20.40;99.90;;;;;;4439459;32;20157;-69
2021/06/23 02:04:39;;;;;;;52.13;34.77;;;20.40;99.90;;;;;;4439456;32;20138;-68
2021/06/23 02:07:16;;;;;;;48.43;35.27;;;20.40;99.90;;;;;;4439607;32;20378;-69
2021/06/23 02:10:04;;;;;;;49.27;34.43;;;20.40;99.90;;;;;;4439491;32;20236;-69
2021/06/23 02:12:31;;;;;;;44.27;33.13;;;20.40;99.90;;;;;;4440704;32;20460;-68
2021/06/23 02:15:02;;;;;;;49.40;34.97;;;20.50;99.90;;;;;;4439428;32;20131;-68
2021/06/23 02:17:30;;;;;;;46.10;33.37;;;20.50;99.90;;;;;;4439577;32;20145;-69
2021/06/23 02:19:59;;;;;;;49.57;32.50;;;20.50;99.90;;;;;;4440828;32;20442;-69
2021/06/23 02:22:28;;;;;;;46.07;32.07;;;20.50;99.90;;;;;;4439343;32;20146;-69
2021/06/23 02:25:11;;;;;;;43.43;32.67;;;20.50;99.90;;;;;;4439153;32;20221;-68
2021/06/23 02:27:42;;;;;;;44.47;32.73;;;20.50;99.90;;;;;;4439248;32;20161;-68
2021/06/23 02:30:12;;;;;;;43.50;32.27;;;20.50;99.90;;;;;;4440780;32;20214;-68
2021/06/23 02:32:42;;;;;;;40.40;31.73;;;20.50;99.90;;;;;;4439247;32;20154;-68
2021/06/23 02:35:10;;;;;;;42.60;31.67;;;20.40;99.90;;;;;;4439109;32;20192;-69
2021/06/23 02:37:37;;;;;;;44.90;32.27;;;20.40;99.90;;;;;;4438423;32;20138;-67
2021/06/23 02:40:08;;;;;;;41.53;31.90;;;20.40;99.90;;;;;;4438986;32;20142;-67
2021/06/23 02:42:35;;;;;;;45.10;32.97;;;20.40;99.90;;;;;;4440150;32;20139;-68
2021/06/23 02:45:04;;;;;;;43.20;31.57;;;20.50;99.90;;;;;;4440135;32;20276;-69
2021/06/23 02:47:31;;;;;;;47.07;33.47;;;20.50;99.90;;;;;;4438763;32;20146;-68
2021/06/23 02:50:00;;;;;;;43.97;31.63;;;20.40;99.90;;;;;;4438835;32;20138;-68
2021/06/23 02:52:27;;;;;;;41.00;30.27;;;20.40;99.90;;;;;;4440483;32;20145;-68
2021/06/23 02:54:54;;;;;;;44.30;32.43;;;20.40;99.90;;;;;;4440289;32;20138;-67
2021/06/23 02:57:21;;;;;;;39.87;30.13;;;20.50;99.90;;;;;;4439670;32;20180;-68
2021/06/23 02:59:49;;;;;;;44.67;30.87;;;20.50;99.90;;;;;;4440280;32;20219;-68
2021/06/23 03:02:16;;;;;;;43.77;32.20;;;20.50;99.90;;;;;;4440119;32;20142;-69
2021/06/23 03:04:48;;;;;;;43.50;31.87;;;20.50;99.90;;;;;;4439379;32;20423;-69
2021/06/23 03:07:16;;;;;;;41.60;31.27;;;20.50;99.90;;;;;;4439265;32;20194;-69
2021/06/23 03:09:43;;;;;;;43.87;32.27;;;20.50;99.90;;;;;;4438705;32;20192;-69
2021/06/23 03:12:12;;;;;;;46.30;32.27;;;20.50;99.90;;;;;;4438871;32;20135;-69
2021/06/23 03:14:40;;;;;;;41.27;31.70;;;20.50;99.90;;;;;;4438673;32;20147;-69
2021/06/23 03:17:07;;;;;;;41.07;31.23;;;20.60;99.90;;;;;;4439344;32;20138;-69
2021/06/23 03:19:34;;;;;;;39.43;30.50;;;20.60;99.90;;;;;;4437990;32;20173;-69
2021/06/23 03:22:05;;;;;;;40.40;29.80;;;20.60;99.90;;;;;;4438225;32;20154;-69
2021/06/23 03:24:35;;;;;;;40.07;30.90;;;20.60;99.90;;;;;;4440191;32;20205;-69
2021/06/23 03:27:02;;;;;;;43.67;33.23;;;20.60;99.90;;;;;;4438476;32;20468;-69
2021/06/23 03:29:32;;;;;;;38.83;30.37;;;20.60;99.90;;;;;;4439852;32;20453;-69
2021/06/23 03:32:01;;;;;;;40.50;30.87;;;20.50;99.90;;;;;;4438632;32;20188;-71
2021/06/23 03:34:29;;;;;;;43.73;31.23;;;20.50;99.90;;;;;;4438578;32;20188;-71
2021/06/23 03:36:55;;;;;;;41.93;31.13;;;20.50;99.90;;;;;;4438903;32;20452;-70
2021/06/23 03:39:23;;;;;;;42.40;32.03;;;20.60;99.90;;;;;;4441589;32;20468;-70
2021/06/23 03:41:50;;;;;;;39.63;29.77;;;20.60;99.90;;;;;;4441756;32;20183;-70
2021/06/23 03:44:17;;;;;;;37.37;27.63;;;20.60;99.90;;;;;;4441667;32;20230;-70
2021/06/23 03:46:44;;;;;;;36.17;27.97;;;20.60;99.90;;;;;;4441527;32;20436;-70
2021/06/23 03:49:10;;;;;;;40.23;30.23;;;20.60;99.90;;;;;;4443068;32;20463;-70
2021/06/23 03:51:37;;;;;;;37.33;27.63;;;20.70;99.90;;;;;;4443168;32;20142;-70
2021/06/23 03:54:05;;;;;;;40.00;29.13;;;20.80;99.90;;;;;;4441569;32;20155;-70
2021/06/23 03:56:36;;;;;;;36.70;28.63;;;20.80;99.90;;;;;;4441456;32;20234;-70
2021/06/23 03:59:03;;;;;;;36.57;28.10;;;20.80;99.90;;;;;;4437693;32;20173;-69
2021/06/23 04:01:30;;;;;;;35.13;27.90;;;20.80;99.90;;;;;;4431322;32;20195;-70
2021/06/23 04:03:57;;;;;;;36.50;26.77;;;20.90;99.90;;;;;;4429962;32;20185;-70
2021/06/23 04:06:24;;;;;;;37.47;27.33;;;20.90;99.90;;;;;;4439123;32;20151;-70
2021/06/23 04:08:51;;;;;;;36.17;27.77;;;21.00;99.90;;;;;;4442753;32;20158;-70
2021/06/23 04:11:18;;;;;;;35.87;27.87;;;21.00;99.90;;;;;;4442823;32;20203;-70
2021/06/23 04:13:44;;;;;;;34.00;27.53;;;21.00;99.90;;;;;;4441265;32;20165;-71
2021/06/23 04:16:12;;;;;;;34.43;25.80;;;21.10;99.90;;;;;;4442472;32;20199;-70
2021/06/23 04:18:39;;;;;;;33.97;26.57;;;21.00;99.90;;;;;;4442612;32;20143;-70
2021/06/23 04:21:07;;;;;;;33.03;26.50;;;21.10;99.90;;;;;;4441005;32;20192;-70
2021/06/23 04:23:34;;;;;;;35.23;27.67;;;21.10;99.90;;;;;;4441232;32;20150;-69
2021/06/23 04:26:01;;;;;;;36.50;26.67;;;21.10;99.90;;;;;;4440958;32;20424;-69
2021/06/23 04:28:28;;;;;;;37.27;27.27;;;21.10;99.90;;;;;;4441122;32;20195;-70
2021/06/23 04:30:55;;;;;;;34.13;26.73;;;21.20;99.90;;;;;;4440966;32;20139;-70
2021/06/23 04:33:22;;;;;;;35.63;26.87;;;21.30;99.90;;;;;;4441849;32;20369;-70
2021/06/23 04:35:49;;;;;;;35.27;27.30;;;21.30;99.90;;;;;;4440935;32;20142;-70
2021/06/23 04:38:16;;;;;;;33.57;26.07;;;21.40;99.90;;;;;;4441065;32;20445;-69
2021/06/23 04:40:44;;;;;;;34.73;27.23;;;21.50;99.90;;;;;;4442125;32;20170;-69
2021/06/23 04:43:11;;;;;;;35.47;27.23;;;21.60;99.90;;;;;;4441221;32;20346;-68
2021/06/23 04:45:37;;;;;;;37.20;26.83;;;21.50;99.90;;;;;;4440675;32;20207;-68
2021/06/23 04:48:05;;;;;;;35.80;27.17;;;21.40;99.90;;;;;;4442152;32;20147;-68
2021/06/23 04:50:32;;;;;;;35.40;26.43;;;21.40;99.90;;;;;;4441973;32;20453;-68
2021/06/23 04:52:59;;;;;;;31.60;25.87;;;21.30;99.90;;;;;;4440939;32;20188;-68
2021/06/23 04:55:26;;;;;;;35.20;27.27;;;21.30;99.90;;;;;;4442189;32;20515;-68
2021/06/23 04:57:53;;;;;;;37.13;28.50;;;21.40;99.90;;;;;;4442614;32;20476;-67
2021/06/23 05:00:20;;;;;;;36.20;28.30;;;21.50;99.90;;;;;;4442358;32;20135;-69
2021/06/23 05:02:48;;;;;;;43.97;28.77;;;21.40;99.90;;;;;;4442003;32;20142;-68
2021/06/23 05:05:15;;;;;;;37.10;27.37;;;21.50;99.90;;;;;;4440740;32;20160;-68
2021/06/23 05:07:42;;;;;;;41.53;28.67;;;21.60;99.90;;;;;;4442256;32;20498;-68
2021/06/23 05:10:09;;;;;;;36.47;25.80;;;21.70;99.90;;;;;;4440620;32;20154;-68
2021/06/23 05:12:36;;;;;;;36.92;27.55;;;21.70;99.90;;;;;;4440628;32;20130;-69
2021/06/23 05:15:04;;;;;;;35.17;27.00;;;21.80;99.90;;;;;;4429738;32;20547;-68
2021/06/23 05:17:31;;;;;;;33.87;25.27;;;21.90;99.90;;;;;;4409542;32;20173;-68
2021/06/23 05:19:59;;;;;;;34.45;24.58;;;21.80;99.90;;;;;;4409498;32;20554;-73
2021/06/23 05:22:26;;;;;;;29.67;23.87;;;22.00;99.90;;;;;;4409669;32;20188;-71
2021/06/23 05:24:53;;;;;;;35.38;23.60;;;22.00;99.90;;;;;;4409885;32;20162;-70
2021/06/23 05:27:20;;;;;;;31.23;23.10;;;21.90;99.90;;;;;;4424297;32;20154;-70
2021/06/23 05:29:47;;;;;;;27.08;20.75;;;21.90;99.90;;;;;;4424436;32;20158;-69
2021/06/23 05:32:14;;;;;;;41.40;28.20;;;21.90;99.90;;;;;;4424579;32;20471;-66
2021/06/23 05:34:41;;;;;;;44.22;29.42;;;22.00;99.90;;;;;;4417083;32;20242;-66
2021/06/23 05:37:08;;;;;;;38.38;26.70;;;22.10;99.90;;;;;;4422523;32;20159;-69
2021/06/23 05:39:35;;;;;;;40.10;27.35;;;22.10;99.90;;;;;;4424703;32;20396;-69
2021/06/23 05:42:03;;;;;;;38.65;27.30;;;22.10;99.90;;;;;;4425707;32;20230;-69
2021/06/23 05:44:30;;;;;;;38.22;27.13;;;22.10;99.90;;;;;;4424331;32;20192;-68
2021/06/23 05:46:57;;;;;;;35.03;25.30;;;22.10;99.90;;;;;;4423121;32;20170;-69
2021/06/23 05:49:24;;;;;;;34.80;25.90;;;22.20;99.90;;;;;;4424042;32;20233;-69
2021/06/23 05:51:52;;;;;;;32.92;25.00;;;22.30;99.90;;;;;;4425757;32;20162;-68
2021/06/23 05:54:19;;;;;;;35.83;26.23;;;22.30;99.90;;;;;;4424409;32;20360;-69
2021/06/23 05:56:46;;;;;;;35.23;26.17;;;22.40;99.90;;;;;;4426287;32;20139;-69
2021/06/23 05:59:13;;;;;;;32.77;26.13;;;22.40;99.90;;;;;;4425851;32;20165;-69
2021/06/23 06:01:39;;;;;;;35.97;26.53;;;22.40;99.90;;;;;;4424065;32;20472;-69
2021/06/23 06:04:06;;;;;;;35.93;26.07;;;22.40;99.90;;;;;;4425557;32;20151;-69
2021/06/23 06:06:33;;;;;;;32.30;25.33;;;22.40;99.90;;;;;;4425731;32;20313;-70
2021/06/23 06:09:00;;;;;;;34.00;25.17;;;22.40;99.90;;;;;;4424552;32;20147;-69
2021/06/23 06:11:27;;;;;;;28.93;23.00;;;22.60;99.90;;;;;;4423575;32;20404;-69
2021/06/23 06:13:54;;;;;;;35.00;25.40;;;22.60;99.90;;;;;;4425827;32;20196;-69
2021/06/23 06:16:21;;;;;;;32.83;25.97;;;22.60;99.90;;;;;;4424124;32;20178;-69
2021/06/23 06:18:48;;;;;;;28.80;22.93;;;22.70;99.90;;;;;;4424123;32;20195;-70
2021/06/23 06:21:15;;;;;;;29.00;23.62;;;22.80;99.90;;;;;;4424628;32;20162;-70
2021/06/23 06:23:42;;;;;;;32.77;24.83;;;23.00;99.90;;;;;;4425431;32;20209;-69
2021/06/23 06:26:09;;;;;;;29.02;23.10;;;23.20;99.90;;;;;;4425393;32;20188;-70
2021/06/23 06:28:38;;;;;;;36.03;27.40;;;23.20;99.90;;;;;;4424741;32;20151;-67
2021/06/23 06:31:06;;;;;;;34.40;26.52;;;23.30;99.90;;;;;;4423976;32;20143;-69
2021/06/23 06:33:34;;;;;;;35.70;26.37;;;23.40;99.90;;;;;;4423695;32;20147;-69
2021/06/23 06:36:02;;;;;;;31.70;24.98;;;23.40;99.90;;;;;;4423779;32;20258;-69
2021/06/23 06:38:29;;;;;;;33.28;26.08;;;23.40;99.90;;;;;;4423923;32;20201;-69
2021/06/23 06:40:56;;;;;;;36.55;27.17;;;23.40;99.90;;;;;;4423614;32;20147;-70
2021/06/23 06:43:23;;;;;;;36.80;28.33;;;23.50;99.90;;;;;;4423793;32;20486;-69
2021/06/23 06:45:51;;;;;;;35.13;25.92;;;23.50;99.90;;;;;;4424145;32;20163;-69
2021/06/23 06:48:21;;;;;;;31.37;24.90;;;23.70;99.90;;;;;;4423284;32;20457;-69
2021/06/23 06:50:48;;;;;;;32.15;24.85;;;23.70;99.90;;;;;;4424525;32;20138;-69
2021/06/23 06:53:16;;;;;;;36.10;26.77;;;23.90;99.90;;;;;;4425468;32;20161;-69
2021/06/23 06:55:43;;;;;;;31.08;24.90;;;23.90;99.90;;;;;;4423484;32;20216;-68
2021/06/23 06:58:10;;;;;;;31.85;26.17;;;24.10;99.90;;;;;;4425012;32;20188;-69
2021/06/23 07:00:38;;;;;;;35.05;26.33;;;24.20;99.90;;;;;;4424013;32;20162;-68
2021/06/23 07:03:05;;;;;;;29.87;23.37;;;24.20;99.90;;;;;;4425141;32;20205;-69
2021/06/23 07:05:33;;;;;;;32.35;24.92;;;24.30;99.90;;;;;;4424969;32;20151;-69
2021/06/23 07:07:59;;;;;;;30.30;23.17;;;24.50;99.90;;;;;;4423291;32;20143;-69
2021/06/23 07:10:26;;;;;;;32.25;26.08;;;24.50;99.90;;;;;;4423474;32;20192;-68
2021/06/23 07:12:54;;;;;;;27.48;21.92;;;24.60;99.90;;;;;;4422905;32;20174;-68
2021/06/23 07:15:21;;;;;;;29.25;22.87;;;24.80;99.90;;;;;;4424942;32;20170;-69
2021/06/23 07:17:51;;;;;;;27.70;21.42;;;24.70;99.90;;;;;;4423287;32;20139;-69
2021/06/23 07:20:18;;;;;;;24.25;20.42;;;24.80;99.90;;;;;;4423405;32;20428;-69
2021/06/23 07:22:45;;;;;;;28.80;22.08;;;24.90;99.90;;;;;;4424097;32;20147;-69
2021/06/23 07:25:12;;;;;;;32.22;23.95;;;25.00;99.90;;;;;;4422456;32;20198;-68
2021/06/23 07:27:39;;;;;;;28.85;22.37;;;25.10;99.90;;;;;;4423281;32;20165;-69
2021/06/23 07:30:07;;;;;;;31.52;23.52;;;25.10;99.90;;;;;;4423015;32;20147;-68
2021/06/23 07:32:41;;;;;;;34.88;23.77;;;25.20;99.90;;;;;;4424101;32;20174;-69
2021/06/23 07:37:55;;;;;;;29.35;22.37;;;25.20;99.90;;;;;;4424686;32;20138;-70
2021/06/23 07:40:36;;;;;;;29.17;22.65;;;25.20;99.90;;;;;;4424158;32;20201;-69
2021/06/23 07:43:04;;;;;;;32.28;23.50;;;25.40;99.90;;;;;;4424969;32;20174;-69
2021/06/23 07:45:30;;;;;;;30.20;23.08;;;25.50;99.90;;;;;;4423184;32;20407;-69
2021/06/23 07:48:16;;;;;;;29.87;23.15;;;25.50;99.90;;;;;;4424610;32;20204;-69
2021/06/23 07:50:51;;;;;;;29.23;23.40;;;25.40;99.90;;;;;;4423699;32;20177;-69
2021/06/23 07:53:28;;;;;;;28.75;22.62;;;25.50;99.90;;;;;;4422904;32;20134;-69
2021/06/23 07:56:07;;;;;;;29.85;23.05;;;25.60;99.90;;;;;;4424667;32;20161;-69
2021/06/23 08:10:03;;;;;;;25.30;20.10;;;25.50;99.90;;;;;;4405200;32;20171;-69
2021/06/23 08:12:39;;;;;;;25.75;21.25;;;25.60;99.90;;;;;;4407326;32;20462;-69
2021/06/23 08:15:06;;;;;;;31.48;22.27;;;25.70;99.90;;;;;;4407269;32;20155;-68
2021/06/23 08:17:33;;;;;;;29.92;23.17;;;25.60;99.90;;;;;;4405678;32;20147;-68
2021/06/23 08:20:00;;;;;;;27.60;21.62;;;25.50;99.90;;;;;;4406941;32;20162;-68
2021/06/23 08:22:27;;;;;;;29.00;22.50;;;25.70;99.90;;;;;;4405488;32;20151;-67
2021/06/23 08:24:54;;;;;;;26.25;21.15;;;25.90;99.90;;;;;;4408222;32;20151;-67
2021/06/23 08:27:21;;;;;;;25.73;21.20;;;26.10;99.90;;;;;;4408664;32;20175;-67
2021/06/23 08:29:48;;;;;;;25.08;18.77;;;26.60;99.90;;;;;;4408305;32;20249;-69
2021/06/23 08:32:15;;;;;;;24.70;18.60;;;27.10;99.90;;;;;;4409792;32;20178;-68
2021/06/23 08:34:42;;;;;;;27.13;20.50;;;27.70;99.90;;;;;;4411075;32;20238;-68
2021/06/23 08:37:09;;;;;;;22.55;19.27;;;28.50;99.90;;;;;;4425633;32;20465;-68
2021/06/23 08:39:35;;;;;;;20.90;18.35;;;29.10;99.90;;;;;;4425560;32;20246;-68
2021/06/23 08:42:03;;;;;;;21.40;17.98;;;29.10;99.90;;;;;;4425490;32;20186;-69
2021/06/23 08:44:30;;;;;;;19.52;16.60;;;29.30;99.90;;;;;;4425476;32;20147;-68
2021/06/23 08:47:00;;;;;;;22.10;17.70;;;29.40;99.90;;;;;;4425286;32;20371;-69
2021/06/23 08:49:28;;;;;;;18.52;16.25;;;29.40;99.90;;;;;;4426980;32;20503;-68
2021/06/23 08:51:55;;;;;;;21.00;16.10;;;29.10;99.90;;;;;;4426875;32;20218;-68
2021/06/23 08:54:23;;;;;;;18.73;16.62;;;29.70;99.90;;;;;;4426814;32;20139;-69
2021/06/23 08:56:50;;;;;;;17.05;15.27;;;30.10;99.90;;;;;;4425350;32;20506;-69
2021/06/23 08:59:17;;;;;;;20.98;15.20;;;30.50;99.90;;;;;;4425387;32;20155;-69
2021/06/23 09:16:25;;;;;;;16.08;14.13;;;30.10;99.90;;;;;;4483962;31;20207;-68
2021/06/23 09:42:50;;;;;;;16.52;14.75;;;30.20;99.90;;;;;;4482515;31;20223;-69
2021/06/23 09:45:18;;;;;;;17.42;13.55;;;30.60;99.90;;;;;;4468101;32;20179;-69
2021/06/23 09:47:48;;;;;;;18.52;15.15;;;30.70;99.90;;;;;;4467650;32;20172;-69
2021/06/23 09:50:24;;;;;;;17.85;14.38;;;30.30;99.90;;;;;;4468009;32;20170;-69
2021/06/23 09:52:53;;;;;;;22.05;16.35;;;30.30;99.90;;;;;;4468012;32;20500;-69
2021/06/23 09:55:20;;;;;;;20.30;16.77;;;30.60;99.90;;;;;;4467625;32;20213;-69
2021/06/23 09:58:36;;;;;;;22.10;17.20;;;30.60;99.90;;;;;;4468014;32;20537;-69
2021/06/23 10:01:12;;;;;;;24.85;17.60;;;30.90;99.90;;;;;;4403775;32;20155;-69
2021/06/23 10:04:04;;;;;;;20.17;16.95;;;30.10;99.90;;;;;;4405483;32;20147;-69
2021/06/23 10:06:40;;;;;;;19.50;16.45;;;30.50;99.90;;;;;;4404010;32;20155;-70
2021/06/23 10:09:23;;;;;;;19.62;15.30;;;30.20;99.90;;;;;;4404415;32;20189;-70
2021/06/23 10:11:54;;;;;;;21.87;17.12;;;30.40;99.90;;;;;;4403649;32;20177;-70
2021/06/23 10:14:23;;;;;;;22.00;16.08;;;30.80;99.90;;;;;;4405552;32;20205;-70
2021/06/23 10:16:52;;;;;;;20.45;16.23;;;30.70;99.90;;;;;;4405035;32;20151;-69
2021/06/23 10:19:19;;;;;;;21.30;18.42;;;30.60;99.90;;;;;;4403639;32;20418;-69
2021/06/23 10:21:47;;;;;;;23.38;16.48;;;30.60;99.90;;;;;;4403324;32;20257;-69
2021/06/23 10:24:15;;;;;;;20.17;16.50;;;30.40;99.90;;;;;;4403281;32;20143;-70
2021/06/23 10:26:50;;;;;;;19.50;16.10;;;31.00;99.90;;;;;;4403148;32;20139;-69
2021/06/23 10:29:25;;;;;;;20.30;17.37;;;31.70;99.90;;;;;;4403204;32;20529;-69
2021/06/23 10:31:52;;;;;;;22.65;17.05;;;32.10;99.90;;;;;;4439949;32;20157;-69
2021/06/23 10:34:20;;;;;;;21.08;17.17;;;32.30;99.90;;;;;;4466204;32;20206;-69
2021/06/23 10:36:48;;;;;;;23.80;17.62;;;31.60;99.90;;;;;;4466912;32;20198;-69
2021/06/23 10:39:16;;;;;;;20.92;17.55;;;31.40;99.90;;;;;;4466767;32;20233;-69
2021/06/23 10:41:46;;;;;;;21.95;17.20;;;31.30;99.90;;;;;;4464582;32;20161;-69
2021/06/23 10:44:16;;;;;;;21.67;17.55;;;31.60;99.90;;;;;;4456673;32;20135;-69
2021/06/23 10:46:45;;;;;;;22.73;18.58;;;31.80;99.90;;;;;;4458069;32;20153;-69
2021/06/23 10:49:16;;;;;;;22.30;18.40;;;31.30;99.90;;;;;;4456473;32;20181;-69
2021/06/23 10:51:45;;;;;;;25.02;19.25;;;31.20;99.90;;;;;;4457392;32;20138;-69
2021/06/23 10:54:34;;;;;;;23.52;19.05;;;30.80;99.90;;;;;;4456110;32;20157;-69
2021/06/23 10:57:01;;;;;;;20.77;17.42;;;31.20;99.90;;;;;;4456085;32;20133;-70
2021/06/23 10:59:36;;;;;;;22.83;17.50;;;31.30;99.90;;;;;;4455874;32;20223;-70
2021/06/23 11:02:11;;;;;;;22.48;17.17;;;31.50;99.90;;;;;;4456193;32;20184;-70
2021/06/23 11:05:11;;;;;;;21.10;17.27;;;31.90;99.90;;;;;;4457520;32;20181;-70
2021/06/23 11:07:43;;;;;;;19.67;16.48;;;31.90;99.90;;;;;;4392889;32;20316;-69
2021/06/23 11:10:16;;;;;;;20.83;16.90;;;31.70;99.90;;;;;;4392357;32;20524;-69
2021/06/23 11:12:43;;;;;;;19.92;16.85;;;32.40;99.90;;;;;;4393296;32;20516;-70
2021/06/23 11:15:11;;;;;;;18.52;15.48;;;32.20;99.70;;;;;;4394259;32;20211;-70
2021/06/23 11:17:38;;;;;;;18.77;15.50;;;32.40;99.90;;;;;;4393973;32;20550;-70
2021/06/23 11:20:25;;;;;;;19.17;14.73;;;32.80;98.70;;;;;;4392104;32;20197;-69
2021/06/23 11:22:56;;;;;;;18.62;14.63;;;32.90;99.00;;;;;;4394220;32;20441;-69
2021/06/23 11:25:32;;;;;;;19.48;15.82;;;32.90;98.30;;;;;;4392960;32;20143;-69
2021/06/23 11:28:08;;;;;;;16.27;14.57;;;32.80;96.80;;;;;;4392615;32;20236;-70
2021/06/23 11:30:50;;;;;;;19.20;14.55;;;32.40;97.50;;;;;;4392390;32;20481;-70
2021/06/23 11:33:29;;;;;;;19.65;14.40;;;32.60;97.50;;;;;;4392639;32;20437;-70
2021/06/23 11:36:04;;;;;;;19.25;14.35;;;32.60;97.80;;;;;;4393962;32;20151;-70
2021/06/23 11:38:32;;;;;;;17.62;14.02;;;33.20;96.10;;;;;;4393024;32;20166;-70
2021/06/23 11:41:01;;;;;;;18.27;15.15;;;33.10;95.30;;;;;;4391943;32;20156;-70
2021/06/23 11:43:28;;;;;;;16.20;13.00;;;32.50;96.70;;;;;;4400540;32;20193;-70
2021/06/23 11:45:55;;;;;;;15.43;13.57;;;32.80;96.30;;;;;;4456171;32;20412;-69
2021/06/23 11:48:29;;;;;;;17.15;13.18;;;33.50;95.10;;;;;;4455796;32;20137;-69
2021/06/23 11:50:56;;;;;;;17.75;13.57;;;33.70;93.30;;;;;;4456857;32;20141;-69
2021/06/23 11:53:23;;;;;;;16.37;12.88;;;33.80;92.00;;;;;;4456554;32;20169;-69
2021/06/23 11:55:51;;;;;;;18.12;14.70;;;34.00;92.00;;;;;;4454090;32;20237;-69
2021/06/23 11:58:19;;;;;;;16.02;12.88;;;33.70;91.10;;;;;;4455599;32;20199;-69
2021/06/23 12:00:46;;;;;;;16.08;14.25;;;33.90;91.80;;;;;;4455194;32;20180;-70
2021/06/23 12:03:15;;;;;;;16.80;13.30;;;34.20;90.60;;;;;;4456635;32;20218;-69
2021/06/23 12:05:44;;;;;;;15.13;13.50;;;34.00;90.40;;;;;;4455269;32;20201;-69
2021/06/23 12:08:11;;;;;;;15.25;12.90;;;33.60;91.30;;;;;;4455055;32;20137;-69
2021/06/23 12:10:39;;;;;;;13.18;11.77;;;33.70;91.70;;;;;;4456568;32;20186;-69
2021/06/23 12:13:07;;;;;;;16.30;13.18;;;33.70;91.20;;;;;;4455079;32;20134;-68
2021/06/23 12:15:35;;;;;;;14.38;12.85;;;33.80;90.60;;;;;;4454696;32;20225;-69
2021/06/23 12:18:07;;;;;;;17.27;12.73;;;33.60;90.60;;;;;;4456259;32;20157;-69
2021/06/23 12:20:36;;;;;;;17.10;13.73;;;33.80;90.10;;;;;;4454749;32;20450;-69
2021/06/23 12:23:05;;;;;;;15.30;13.38;;;33.90;89.10;;;;;;4454836;32;20142;-70
2021/06/23 12:25:42;;;;;;;15.93;13.57;;;33.50;91.10;;;;;;4454874;32;20146;-69
2021/06/23 12:28:14;;;;;;;15.43;13.45;;;33.60;90.40;;;;;;4454874;32;20215;-68
2021/06/23 12:30:43;;;;;;;17.40;13.05;;;33.60;90.80;;;;;;4454948;32;20142;-69
2021/06/23 12:33:11;;;;;;;14.40;12.77;;;33.80;90.90;;;;;;4454744;32;20181;-69
2021/06/23 12:35:40;;;;;;;14.05;12.65;;;34.70;90.10;;;;;;4454736;32;20278;-69
2021/06/23 12:38:08;;;;;;;16.77;12.23;;;34.90;88.00;;;;;;4454763;32;20142;-69
2021/06/23 12:40:36;;;;;;;14.63;13.00;;;35.10;85.50;;;;;;4454608;32;20161;-69
2021/06/23 12:43:09;;;;;;;16.58;13.40;;;35.10;83.30;;;;;;4455323;32;20166;-69
2021/06/23 12:45:41;;;;;;;14.30;12.80;;;34.60;84.50;;;;;;4456204;32;20146;-69
2021/06/23 12:48:08;;;;;;;16.33;12.65;;;34.70;84.20;;;;;;4454824;32;20138;-68
2021/06/23 12:50:35;;;;;;;17.92;12.88;;;34.40;85.40;;;;;;4456094;32;20134;-69
2021/06/23 12:53:03;;;;;;;14.10;12.57;;;33.90;86.00;;;;;;4454211;32;20383;-69
2021/06/23 12:55:30;;;;;;;13.93;12.43;;;33.80;86.40;;;;;;4455060;32;20208;-69
2021/06/23 12:57:57;;;;;;;14.20;12.70;;;33.40;89.30;;;;;;4456074;32;20133;-69
2021/06/23 13:00:27;;;;;;;16.62;13.02;;;33.60;89.20;;;;;;4456330;32;20264;-69
2021/06/23 13:02:54;;;;;;;15.13;12.68;;;33.40;88.20;;;;;;4454116;32;20234;-69
2021/06/23 13:05:21;;;;;;;15.80;12.48;;;33.00;90.70;;;;;;4455822;32;20445;-69
2021/06/23 13:07:50;;;;;;;16.50;13.50;;;33.70;91.30;;;;;;4454564;32;20177;-69
2021/06/23 13:10:17;;;;;;;16.95;13.80;;;34.50;89.30;;;;;;4455156;32;20520;-68
2021/06/23 13:12:45;;;;;;;16.10;12.88;;;35.00;84.60;;;;;;4454346;32;20205;-68
2021/06/23 13:15:18;;;;;;;13.55;12.15;;;35.10;82.90;;;;;;4455046;32;20185;-68
2021/06/23 13:17:45;;;;;;;15.98;12.52;;;35.10;83.70;;;;;;4456275;32;20511;-69
2021/06/23 13:20:14;;;;;;;17.25;12.80;;;35.50;82.90;;;;;;4454465;32;20184;-70
2021/06/23 13:22:41;;;;;;;15.15;12.68;;;35.30;82.00;;;;;;4455209;32;20142;-69
2021/06/23 13:25:08;;;;;;;14.30;12.80;;;34.50;84.50;;;;;;4453135;32;20201;-69
2021/06/23 13:27:35;;;;;;;16.58;13.18;;;34.50;85.50;;;;;;4455773;32;20138;-68
2021/06/23 13:30:06;;;;;;;15.13;13.35;;;34.50;85.80;;;;;;4455802;32;20138;-69